Time;durP1;ratioP1;P1;durP2;ratioP2;P2;SDS_P1;SDS_P2;PMS_P1;PMS_P2;Temp;Humidity;BMP_temperature;BMP_pressure;BME280_temperature;BME280_humidity;BME280_pressure;Samples;Min_cycle;Max_cycle;Signal;HPM_P1;HPM_P2
2023/08/03 00:00:12;;;;;;;12.25;3.15;;;21.40;99.90;;;;;;5111637;28;20256;-70
2023/08/03 00:02:39;;;;;;;13.35;4.40;;;21.40;99.90;;;;;;5111688;28;20236;-70
2023/08/03 00:05:08;;;;;;;13.15;3.22;;;21.40;99.90;;;;;;5111064;28;20208;-69
2023/08/03 00:07:35;;;;;;;7.35;3.00;;;21.50;99.90;;;;;;5111893;28;20200;-70
2023/08/03 00:10:02;;;;;;;9.60;3.53;;;21.50;99.90;;;;;;5109961;28;20275;-70
2023/08/03 00:12:29;;;;;;;10.40;2.67;;;21.40;99.90;;;;;;5111169;28;20732;-70
2023/08/03 00:14:56;;;;;;;13.25;3.80;;;21.30;99.90;;;;;;5110968;28;20240;-70
2023/08/03 00:17:23;;;;;;;11.15;3.75;;;21.30;99.90;;;;;;5111113;28;20262;-70
2023/08/03 00:19:50;;;;;;;12.70;4.05;;;21.30;99.90;;;;;;5110718;28;20236;-70
2023/08/03 00:22:18;;;;;;;14.90;5.47;;;21.30;99.90;;;;;;5111361;28;20236;-70
2023/08/03 00:24:45;;;;;;;9.68;3.90;;;21.30;99.90;;;;;;5110977;28;20204;-70
2023/08/03 00:27:12;;;;;;;11.27;3.22;;;21.30;99.90;;;;;;5110746;28;20236;-70
2023/08/03 00:29:39;;;;;;;13.18;4.13;;;21.20;99.90;;;;;;5111062;28;20313;-70
2023/08/03 00:32:07;;;;;;;16.42;4.38;;;21.20;99.90;;;;;;5110774;28;20204;-69
2023/08/03 00:34:34;;;;;;;10.23;3.92;;;21.20;99.90;;;;;;5111235;28;20216;-70
2023/08/03 00:37:01;;;;;;;12.40;3.28;;;21.20;99.90;;;;;;5110683;28;20228;-71
2023/08/03 00:39:30;;;;;;;13.98;3.92;;;21.20;99.90;;;;;;5110694;28;20665;-71
2023/08/03 00:41:56;;;;;;;10.88;3.88;;;21.20;99.90;;;;;;5110300;28;20247;-70
2023/08/03 00:44:23;;;;;;;12.93;3.58;;;21.20;99.90;;;;;;5110947;28;20263;-70
2023/08/03 00:46:50;;;;;;;9.98;3.35;;;21.10;99.90;;;;;;5110534;28;20232;-70
2023/08/03 00:49:17;;;;;;;11.18;3.95;;;21.10;99.90;;;;;;5110535;28;20630;-69
2023/08/03 00:51:44;;;;;;;12.88;3.83;;;21.00;99.90;;;;;;5110451;28;20288;-70
2023/08/03 00:54:11;;;;;;;11.63;3.28;;;21.00;99.90;;;;;;5110913;28;20613;-70
2023/08/03 00:56:41;;;;;;;7.65;2.97;;;21.00;99.90;;;;;;5110818;28;20236;-70
2023/08/03 00:59:10;;;;;;;14.18;4.65;;;21.10;99.90;;;;;;5111064;28;20208;-69
2023/08/03 01:01:38;;;;;;;15.98;4.75;;;21.10;99.90;;;;;;5110845;28;20300;-70
2023/08/03 01:04:05;;;;;;;7.40;3.28;;;21.00;99.90;;;;;;5110675;28;20696;-70
2023/08/03 01:06:32;;;;;;;10.90;3.70;;;21.00;99.90;;;;;;5110622;28;20289;-71
2023/08/03 01:09:00;;;;;;;6.95;3.05;;;21.10;99.90;;;;;;5110261;28;20243;-70
2023/08/03 01:11:27;;;;;;;10.77;3.40;;;21.10;99.90;;;;;;5110228;28;20237;-70
2023/08/03 01:13:56;;;;;;;12.45;3.42;;;21.00;99.90;;;;;;5110312;28;20664;-70
2023/08/03 01:16:24;;;;;;;10.75;4.15;;;21.00;99.90;;;;;;5110719;28;20236;-69
2023/08/03 01:18:51;;;;;;;9.18;3.33;;;20.90;99.90;;;;;;5110244;28;20640;-70
2023/08/03 01:21:20;;;;;;;7.78;2.78;;;20.90;99.90;;;;;;5113604;28;20236;-70
2023/08/03 01:23:48;;;;;;;11.82;3.53;;;20.90;99.90;;;;;;5113848;28;20243;-70
2023/08/03 01:26:15;;;;;;;9.80;3.30;;;20.90;99.90;;;;;;5114408;28;20247;-70
2023/08/03 01:28:42;;;;;;;11.02;4.10;;;21.00;99.90;;;;;;5114088;28;20708;-70
2023/08/03 01:31:09;;;;;;;9.23;2.97;;;21.00;99.90;;;;;;5114451;28;20286;-70
2023/08/03 01:33:36;;;;;;;10.70;3.25;;;21.00;99.90;;;;;;5114689;28;20240;-70
2023/08/03 01:36:03;;;;;;;9.88;3.45;;;21.00;99.90;;;;;;5113945;28;20255;-70
2023/08/03 01:38:30;;;;;;;7.40;2.80;;;21.00;99.90;;;;;;5113947;28;20243;-70
2023/08/03 01:41:00;;;;;;;9.63;3.70;;;20.90;99.90;;;;;;5113501;28;20208;-74
2023/08/03 01:43:27;;;;;;;7.82;3.20;;;20.80;99.90;;;;;;5114496;28;20296;-70
2023/08/03 01:45:53;;;;;;;12.57;3.10;;;20.90;99.90;;;;;;5113776;28;20284;-70
2023/08/03 01:48:20;;;;;;;9.38;3.20;;;20.90;99.90;;;;;;5114181;28;20326;-70
2023/08/03 01:50:47;;;;;;;10.95;3.25;;;20.80;99.90;;;;;;5113477;28;20274;-70
2023/08/03 01:53:16;;;;;;;10.57;3.10;;;20.90;99.90;;;;;;5113421;28;20233;-70
2023/08/03 01:55:45;;;;;;;13.60;3.50;;;21.00;99.90;;;;;;5112250;28;20205;-70
2023/08/03 01:58:13;;;;;;;8.65;2.78;;;21.00;99.90;;;;;;5107488;28;20670;-70
2023/08/03 02:00:40;;;;;;;12.10;3.47;;;20.90;99.90;;;;;;5109834;28;20274;-70
2023/08/03 02:03:07;;;;;;;13.07;5.00;;;20.80;99.90;;;;;;5106148;28;20263;-69
2023/08/03 02:05:34;;;;;;;16.45;3.97;;;20.80;99.90;;;;;;5107632;28;20215;-70
2023/08/03 02:08:01;;;;;;;12.63;4.20;;;20.80;99.90;;;;;;5099713;28;20240;-70
2023/08/03 02:10:28;;;;;;;14.93;3.67;;;20.80;99.90;;;;;;5112419;28;20588;-70
2023/08/03 02:12:55;;;;;;;11.85;3.88;;;20.90;99.90;;;;;;5113287;27;20289;-70
2023/08/03 02:15:25;;;;;;;13.82;4.25;;;20.90;99.90;;;;;;5109966;27;20490;-70
2023/08/03 02:17:52;;;;;;;9.60;3.55;;;20.90;99.90;;;;;;5102353;28;20236;-70
2023/08/03 02:20:19;;;;;;;12.93;3.40;;;20.90;99.90;;;;;;5113269;28;20236;-71
2023/08/03 02:22:46;;;;;;;11.75;3.47;;;20.90;99.90;;;;;;5112809;28;20207;-70
2023/08/03 02:25:12;;;;;;;10.63;3.03;;;20.90;99.90;;;;;;5113307;28;20240;-70
2023/08/03 02:27:40;;;;;;;13.80;3.85;;;20.90;99.90;;;;;;5113437;28;20305;-70
2023/08/03 02:30:10;;;;;;;11.25;3.35;;;20.80;99.90;;;;;;5113657;28;20204;-71
2023/08/03 02:32:39;;;;;;;9.75;4.03;;;20.80;99.90;;;;;;5107414;28;20659;-70
2023/08/03 02:35:07;;;;;;;12.35;3.72;;;20.70;99.90;;;;;;5103893;28;20211;-70
2023/08/03 02:37:34;;;;;;;14.23;4.20;;;20.80;99.90;;;;;;5112626;28;20613;-70
2023/08/03 02:40:00;;;;;;;9.75;3.25;;;20.80;99.90;;;;;;5112896;28;20240;-70
2023/08/03 02:42:27;;;;;;;7.30;3.60;;;20.70;99.90;;;;;;5112938;28;20248;-69
2023/08/03 02:44:54;;;;;;;14.00;3.30;;;20.70;99.90;;;;;;5112691;28;20244;-73
2023/08/03 02:47:21;;;;;;;11.77;3.67;;;20.60;99.90;;;;;;5112886;28;20301;-70
2023/08/03 02:49:50;;;;;;;8.95;3.22;;;20.60;99.90;;;;;;5084410;28;20228;-70
2023/08/03 02:52:17;;;;;;;10.43;3.85;;;20.70;99.90;;;;;;5112742;28;20272;-70
2023/08/03 02:54:44;;;;;;;10.23;3.78;;;20.70;99.90;;;;;;5112043;28;20669;-70
2023/08/03 02:57:11;;;;;;;12.27;3.88;;;20.70;99.90;;;;;;5112950;28;20254;-70
2023/08/03 02:59:37;;;;;;;11.50;3.47;;;20.70;99.90;;;;;;5112956;28;20229;-70
2023/08/03 03:02:05;;;;;;;9.63;3.60;;;20.70;99.90;;;;;;5112375;28;20213;-70
2023/08/03 03:04:32;;;;;;;13.82;4.43;;;20.70;99.90;;;;;;5112219;28;20204;-70
2023/08/03 03:07:00;;;;;;;9.82;3.47;;;20.70;99.90;;;;;;5105597;28;20245;-70
2023/08/03 03:09:27;;;;;;;13.75;4.18;;;20.70;99.90;;;;;;5105374;28;20205;-69
2023/08/03 03:11:55;;;;;;;10.52;3.95;;;20.60;99.90;;;;;;5111697;28;20751;-69
2023/08/03 03:14:22;;;;;;;15.00;3.75;;;20.60;99.90;;;;;;5112340;28;20262;-70
2023/08/03 03:16:49;;;;;;;8.70;2.88;;;20.50;99.90;;;;;;5111652;28;20244;-74
2023/08/03 03:19:16;;;;;;;12.35;4.53;;;20.50;99.90;;;;;;5112512;28;20261;-70
2023/08/03 03:21:43;;;;;;;11.40;4.57;;;20.50;99.90;;;;;;5111439;28;20240;-70
2023/08/03 03:24:11;;;;;;;8.02;3.90;;;20.60;99.90;;;;;;5112234;28;20236;-70
2023/08/03 03:26:38;;;;;;;13.35;4.03;;;20.60;99.90;;;;;;5112455;28;20659;-70
2023/08/03 03:29:05;;;;;;;11.00;4.40;;;20.60;99.90;;;;;;5111974;28;20316;-70
2023/08/03 03:31:32;;;;;;;13.25;3.63;;;20.60;99.90;;;;;;5111804;28;20609;-69
2023/08/03 03:33:59;;;;;;;12.95;3.40;;;20.60;99.90;;;;;;5111309;28;20718;-70
2023/08/03 03:36:26;;;;;;;11.68;3.38;;;20.70;99.90;;;;;;5111465;28;20711;-73
2023/08/03 03:38:53;;;;;;;10.90;3.83;;;20.70;99.90;;;;;;5111576;28;20397;-71
2023/08/03 03:41:21;;;;;;;12.35;3.47;;;20.60;99.90;;;;;;5111670;28;20265;-70
2023/08/03 03:43:48;;;;;;;11.93;3.38;;;20.60;99.90;;;;;;5111026;28;20233;-70
2023/08/03 03:46:15;;;;;;;9.15;2.58;;;20.60;99.90;;;;;;5111938;28;20240;-70
2023/08/03 03:48:42;;;;;;;11.48;3.33;;;20.70;99.90;;;;;;5083186;28;20270;-69
2023/08/03 03:51:09;;;;;;;8.32;3.10;;;20.60;99.90;;;;;;5112179;28;20264;-70
2023/08/03 03:53:35;;;;;;;12.65;3.30;;;20.60;99.90;;;;;;5112054;28;20305;-70
2023/08/03 03:56:03;;;;;;;9.50;3.65;;;20.50;99.90;;;;;;5111437;28;20241;-70
2023/08/03 03:58:31;;;;;;;7.50;3.55;;;20.40;99.90;;;;;;5111273;28;20219;-70
2023/08/03 04:00:58;;;;;;;10.70;3.45;;;20.40;99.90;;;;;;5089833;28;20306;-74
2023/08/03 04:03:26;;;;;;;5.80;2.67;;;20.40;99.90;;;;;;5111289;28;20211;-70
2023/08/03 04:05:53;;;;;;;9.27;2.78;;;20.30;99.90;;;;;;5111070;28;20209;-70
2023/08/03 04:08:20;;;;;;;10.23;3.80;;;20.30;99.90;;;;;;5111380;28;20204;-70
2023/08/03 04:10:47;;;;;;;8.45;2.67;;;20.20;99.90;;;;;;5110835;28;20282;-69
2023/08/03 04:13:14;;;;;;;7.13;3.38;;;20.20;99.90;;;;;;5110880;28;20248;-70
2023/08/03 04:15:42;;;;;;;8.52;2.50;;;20.00;99.90;;;;;;5111403;28;20291;-69
2023/08/03 04:18:09;;;;;;;9.88;2.53;;;20.00;99.90;;;;;;5111086;28;20586;-70
2023/08/03 04:20:36;;;;;;;9.60;2.65;;;20.10;99.90;;;;;;5111607;28;20197;-70
2023/08/03 04:23:03;;;;;;;13.07;3.80;;;20.10;99.90;;;;;;5110795;28;20247;-74
2023/08/03 04:25:30;;;;;;;10.88;2.83;;;20.10;99.90;;;;;;5110933;28;20240;-70
2023/08/03 04:27:57;;;;;;;10.15;2.97;;;20.00;99.90;;;;;;5110651;28;20243;-70
2023/08/03 04:30:23;;;;;;;9.38;2.85;;;20.10;99.90;;;;;;5110918;28;20244;-69
2023/08/03 04:32:52;;;;;;;8.00;3.08;;;20.10;99.90;;;;;;5110524;28;20260;-70
2023/08/03 04:35:19;;;;;;;10.38;2.97;;;20.10;99.90;;;;;;5110992;28;20244;-73
2023/08/03 04:37:45;;;;;;;6.78;3.53;;;20.10;99.90;;;;;;5110361;28;20716;-72
2023/08/03 04:40:12;;;;;;;7.07;3.28;;;20.10;99.90;;;;;;5110589;28;20285;-70
2023/08/03 04:42:39;;;;;;;8.48;2.75;;;20.20;99.90;;;;;;5111051;28;20647;-70
2023/08/03 04:45:07;;;;;;;9.45;3.00;;;20.10;99.90;;;;;;5110820;28;20240;-70
2023/08/03 04:47:34;;;;;;;8.20;2.75;;;20.10;99.90;;;;;;5111233;28;20212;-70
2023/08/03 04:50:02;;;;;;;7.03;2.60;;;20.20;99.90;;;;;;5110350;28;20234;-74
2023/08/03 04:52:29;;;;;;;11.23;2.72;;;20.20;99.90;;;;;;5110725;28;20316;-69
2023/08/03 04:54:56;;;;;;;9.15;2.67;;;20.20;99.90;;;;;;5110816;28;20205;-70
2023/08/03 04:57:23;;;;;;;10.52;2.33;;;20.10;99.90;;;;;;5115559;28;20240;-69
2023/08/03 04:59:50;;;;;;;6.30;2.55;;;20.10;99.90;;;;;;5113405;28;20247;-70
2023/08/03 05:02:17;;;;;;;8.15;3.42;;;20.00;99.90;;;;;;5114762;28;20235;-70
2023/08/03 05:04:44;;;;;;;10.60;2.60;;;20.10;99.90;;;;;;5114065;28;20240;-69
2023/08/03 05:07:12;;;;;;;9.57;2.67;;;20.10;99.90;;;;;;5114764;28;20687;-69
2023/08/03 05:09:39;;;;;;;7.82;3.10;;;20.20;99.90;;;;;;5114792;28;20236;-70
2023/08/03 05:12:06;;;;;;;10.90;2.85;;;20.20;99.90;;;;;;5114925;28;20290;-70
2023/08/03 05:14:33;;;;;;;9.45;2.60;;;20.20;99.90;;;;;;5114350;28;20259;-69
2023/08/03 05:17:00;;;;;;;7.50;2.70;;;20.20;99.90;;;;;;5114651;28;20208;-70
2023/08/03 05:19:27;;;;;;;9.98;3.03;;;20.20;99.90;;;;;;5114569;28;20289;-70
2023/08/03 05:21:54;;;;;;;9.95;3.60;;;20.30;99.90;;;;;;5113772;28;20205;-73
2023/08/03 05:24:22;;;;;;;9.00;2.28;;;20.30;99.90;;;;;;5114519;28;20236;-70
2023/08/03 05:26:49;;;;;;;6.07;2.53;;;20.30;99.90;;;;;;5113806;28;20241;-69
2023/08/03 05:29:16;;;;;;;7.68;2.80;;;20.20;99.90;;;;;;5114321;28;20692;-70
2023/08/03 05:31:43;;;;;;;7.38;2.97;;;20.20;99.90;;;;;;5114030;28;20260;-70
2023/08/03 05:34:10;;;;;;;13.73;3.05;;;20.30;99.90;;;;;;5114525;28;20289;-70
2023/08/03 05:36:37;;;;;;;12.35;3.00;;;20.30;99.90;;;;;;5114092;28;20297;-74
2023/08/03 05:39:05;;;;;;;10.75;2.58;;;20.30;99.90;;;;;;5114072;28;20278;-72
2023/08/03 05:41:33;;;;;;;10.55;2.50;;;20.30;99.90;;;;;;5113759;28;20266;-70
2023/08/03 05:44:00;;;;;;;6.32;3.53;;;20.30;99.90;;;;;;5114086;28;20232;-69
2023/08/03 05:46:31;;;;;;;11.73;3.35;;;20.40;99.90;;;;;;5114125;28;20240;-70
2023/08/03 05:48:58;;;;;;;7.60;1.98;;;20.60;99.90;;;;;;5113791;28;20237;-69
2023/08/03 05:51:27;;;;;;;10.20;3.28;;;20.60;99.90;;;;;;5114259;28;20264;-71
2023/08/03 05:53:55;;;;;;;8.65;3.17;;;20.50;99.90;;;;;;5113599;28;20243;-70
2023/08/03 05:56:22;;;;;;;8.57;3.33;;;20.60;99.90;;;;;;5113910;28;20208;-69
2023/08/03 05:58:52;;;;;;;10.80;3.03;;;20.70;99.90;;;;;;5113378;28;20676;-75
2023/08/03 06:01:20;;;;;;;7.25;2.95;;;20.90;99.90;;;;;;5113369;28;20605;-69
2023/08/03 06:03:48;;;;;;;9.90;2.75;;;20.80;99.90;;;;;;5113710;28;20209;-70
2023/08/03 06:06:20;;;;;;;10.93;2.70;;;20.80;99.90;;;;;;5113522;28;20647;-70
2023/08/03 06:08:49;;;;;;;8.77;3.28;;;20.70;99.90;;;;;;5113306;28;20240;-70
2023/08/03 06:11:17;;;;;;;8.25;2.92;;;20.70;99.90;;;;;;5113618;28;20252;-70
2023/08/03 06:13:45;;;;;;;9.63;3.58;;;20.70;99.90;;;;;;5113190;28;20200;-69
2023/08/03 06:16:14;;;;;;;11.82;3.35;;;20.70;99.90;;;;;;5113418;28;20212;-70
2023/08/03 06:18:48;;;;;;;9.77;3.53;;;20.60;99.90;;;;;;5113086;28;20235;-71
2023/08/03 06:21:15;;;;;;;8.05;4.25;;;20.60;99.90;;;;;;5113409;28;20254;-73
2023/08/03 06:23:45;;;;;;;10.45;3.85;;;20.70;99.90;;;;;;5105723;28;20236;-70
2023/08/03 06:26:13;;;;;;;9.48;3.00;;;20.90;99.90;;;;;;5094407;28;20232;-70
2023/08/03 06:28:40;;;;;;;10.13;3.45;;;21.00;99.90;;;;;;5092497;28;20205;-70
2023/08/03 06:31:15;;;;;;;9.85;2.90;;;21.10;99.90;;;;;;5092946;28;20209;-70
2023/08/03 06:33:43;;;;;;;9.77;3.05;;;20.90;99.90;;;;;;5092420;28;20250;-71
2023/08/03 06:36:13;;;;;;;7.75;2.97;;;20.90;99.90;;;;;;5093061;28;20208;-69
2023/08/03 06:38:42;;;;;;;6.43;2.25;;;20.80;99.90;;;;;;5092364;28;20208;-69
2023/08/03 06:41:09;;;;;;;7.35;3.58;;;20.90;99.90;;;;;;5092674;28;20209;-69
2023/08/03 06:43:36;;;;;;;8.48;3.47;;;21.00;99.90;;;;;;5092251;28;20212;-70
2023/08/03 06:46:04;;;;;;;6.47;2.17;;;21.00;99.90;;;;;;5081190;28;20201;-70
2023/08/03 06:48:33;;;;;;;11.73;3.50;;;21.00;99.90;;;;;;5091952;28;20209;-70
2023/08/03 06:51:01;;;;;;;7.00;3.00;;;21.00;99.90;;;;;;5091390;28;20237;-70
2023/08/03 06:53:27;;;;;;;6.45;2.70;;;21.10;99.90;;;;;;5092124;28;20268;-75
2023/08/03 06:55:54;;;;;;;7.63;2.42;;;21.20;99.90;;;;;;5092062;28;20233;-71
2023/08/03 06:58:22;;;;;;;6.10;2.33;;;21.40;99.90;;;;;;5092186;28;20263;-74
2023/08/03 07:00:49;;;;;;;5.40;2.55;;;21.50;99.90;;;;;;5090970;28;20205;-74
2023/08/03 07:03:16;;;;;;;6.05;2.47;;;21.40;99.90;;;;;;5092220;28;20298;-74
2023/08/03 07:05:45;;;;;;;7.72;3.15;;;21.30;99.90;;;;;;5102142;28;20240;-69
2023/08/03 07:08:12;;;;;;;5.43;2.30;;;21.50;99.90;;;;;;5107033;28;20707;-69
2023/08/03 07:10:39;;;;;;;10.30;3.10;;;21.70;99.90;;;;;;5091868;28;20613;-70
2023/08/03 07:13:06;;;;;;;8.68;2.63;;;22.20;99.90;;;;;;5091459;28;20724;-70
2023/08/03 07:15:34;;;;;;;6.72;3.13;;;22.20;99.90;;;;;;5091796;28;20286;-69
2023/08/03 07:18:03;;;;;;;7.90;2.15;;;22.30;99.90;;;;;;5091368;28;20211;-70
2023/08/03 07:20:30;;;;;;;8.70;2.53;;;22.10;99.90;;;;;;5091868;28;20290;-69
2023/08/03 07:22:58;;;;;;;7.60;2.70;;;22.00;99.90;;;;;;5091267;28;20213;-70
2023/08/03 07:25:25;;;;;;;8.55;2.53;;;21.90;99.90;;;;;;5091708;28;20243;-70
2023/08/03 07:27:53;;;;;;;5.80;2.42;;;22.10;99.90;;;;;;5091378;28;20233;-74
2023/08/03 07:30:20;;;;;;;5.00;2.05;;;22.30;99.90;;;;;;5091541;28;20213;-70
2023/08/03 07:32:47;;;;;;;9.13;3.00;;;22.70;99.90;;;;;;5109924;28;20279;-70
2023/08/03 07:35:14;;;;;;;8.68;2.80;;;22.50;99.90;;;;;;5111611;28;20240;-69
2023/08/03 07:37:41;;;;;;;8.65;2.80;;;22.30;99.90;;;;;;5111653;28;20236;-69
2023/08/03 07:40:10;;;;;;;9.98;2.30;;;22.40;99.90;;;;;;5111740;28;20237;-70
2023/08/03 07:42:37;;;;;;;6.47;2.92;;;22.50;99.90;;;;;;5111373;28;20236;-74
2023/08/03 07:45:05;;;;;;;8.60;2.30;;;22.50;99.90;;;;;;5111838;28;20240;-75
2023/08/03 07:47:32;;;;;;;10.02;3.00;;;22.50;99.90;;;;;;5100174;28;20291;-69
2023/08/03 07:49:59;;;;;;;7.95;2.42;;;22.60;99.90;;;;;;5110757;28;20244;-69
2023/08/03 07:52:25;;;;;;;6.05;2.50;;;22.60;99.90;;;;;;5097715;28;20333;-68
2023/08/03 07:54:54;;;;;;;6.13;1.92;;;22.60;99.90;;;;;;5090653;28;20229;-70
2023/08/03 07:57:22;;;;;;;8.93;2.53;;;22.50;99.90;;;;;;5091114;28;20212;-69
2023/08/03 07:59:50;;;;;;;8.68;2.55;;;22.70;99.90;;;;;;5090509;28;20233;-70
2023/08/03 08:02:17;;;;;;;7.68;3.08;;;22.90;99.90;;;;;;5090932;28;20708;-70
2023/08/03 08:04:44;;;;;;;11.30;2.53;;;22.80;99.90;;;;;;5092814;28;20327;-68
2023/08/03 08:07:10;;;;;;;13.27;3.45;;;23.10;99.90;;;;;;5108629;28;20236;-68
2023/08/03 08:09:37;;;;;;;9.65;3.08;;;23.10;99.90;;;;;;5095343;28;20237;-68
2023/08/03 08:12:07;;;;;;;9.60;2.95;;;22.90;99.90;;;;;;5090809;28;20322;-69
2023/08/03 08:14:35;;;;;;;8.40;2.30;;;22.90;99.90;;;;;;5090590;28;20247;-69
2023/08/03 08:17:03;;;;;;;5.32;2.15;;;23.10;99.90;;;;;;5090367;28;20294;-70
2023/08/03 08:19:31;;;;;;;7.60;2.95;;;23.30;99.90;;;;;;5090846;28;20733;-72
2023/08/03 08:21:58;;;;;;;6.47;2.88;;;23.50;99.90;;;;;;5090182;28;20592;-74
2023/08/03 08:24:25;;;;;;;8.10;1.88;;;24.00;99.90;;;;;;5097716;28;20236;-72
2023/08/03 08:26:52;;;;;;;5.95;1.55;;;24.10;99.90;;;;;;5109837;28;20251;-72
2023/08/03 08:29:19;;;;;;;7.82;2.28;;;24.00;99.90;;;;;;5090041;28;20237;-76
2023/08/03 08:31:47;;;;;;;3.65;2.05;;;24.20;99.90;;;;;;5090435;28;20290;-73
2023/08/03 08:34:14;;;;;;;13.98;2.85;;;24.20;99.90;;;;;;5090726;28;20228;-76
2023/08/03 08:36:41;;;;;;;6.95;2.63;;;24.20;99.90;;;;;;5090597;28;20213;-74
2023/08/03 08:39:08;;;;;;;7.95;2.75;;;24.30;99.90;;;;;;5090535;28;20247;-74
2023/08/03 08:41:40;;;;;;;7.45;2.78;;;24.20;99.90;;;;;;5090130;28;20237;-73
2023/08/03 08:44:06;;;;;;;4.18;1.67;;;24.30;99.90;;;;;;5090240;28;20593;-73
2023/08/03 08:46:33;;;;;;;7.55;2.78;;;24.80;99.90;;;;;;5089988;28;20229;-74
2023/08/03 08:49:02;;;;;;;8.27;2.00;;;25.20;99.90;;;;;;5090404;28;20244;-75
2023/08/03 08:51:29;;;;;;;6.20;2.35;;;25.40;99.90;;;;;;5090139;28;20618;-75
2023/08/03 08:53:56;;;;;;;5.15;2.50;;;26.00;99.90;;;;;;5090516;28;20716;-79
2023/08/03 08:56:23;;;;;;;5.20;2.25;;;25.50;99.90;;;;;;5090008;28;20228;-74
2023/08/03 08:58:50;;;;;;;6.10;1.90;;;25.20;99.90;;;;;;5102017;28;20229;-82
2023/08/03 09:01:17;;;;;;;7.25;2.33;;;25.40;99.90;;;;;;5110091;28;20300;-77
2023/08/03 09:03:50;;;;;;;6.68;2.22;;;25.40;99.90;;;;;;5094972;28;20212;-80
2023/08/03 09:06:19;;;;;;;8.25;2.65;;;25.50;99.90;;;;;;5090096;28;20232;-80
2023/08/03 09:08:54;;;;;;;8.55;2.85;;;25.20;99.90;;;;;;5090079;28;20287;-74
2023/08/03 09:11:37;;;;;;;10.32;3.90;;;25.00;99.90;;;;;;5096233;28;20216;-82
2023/08/03 09:14:06;;;;;;;6.60;2.50;;;25.20;99.90;;;;;;5106539;28;20240;-76
2023/08/03 09:16:33;;;;;;;6.47;2.25;;;25.00;99.90;;;;;;5097686;28;20285;-80
2023/08/03 09:19:00;;;;;;;7.60;2.13;;;24.90;99.90;;;;;;5108217;28;20236;-79
2023/08/03 09:21:29;;;;;;;3.15;1.85;;;25.00;99.90;;;;;;5090106;28;20237;-80
2023/08/03 09:23:56;;;;;;;4.28;2.30;;;25.20;99.90;;;;;;5089724;28;20213;-79
2023/08/03 09:26:24;;;;;;;4.80;1.90;;;25.00;99.90;;;;;;5089888;28;20673;-75
2023/08/03 09:28:51;;;;;;;5.38;2.80;;;24.60;99.90;;;;;;5089834;28;20212;-76
2023/08/03 09:31:24;;;;;;;7.03;1.88;;;24.10;99.90;;;;;;5089876;28;20338;-77
2023/08/03 09:33:59;;;;;;;6.00;2.53;;;23.60;99.90;;;;;;5089496;28;20309;-75
2023/08/03 09:36:28;;;;;;;4.28;1.60;;;23.10;99.90;;;;;;5090018;28;20200;-76
2023/08/03 09:39:11;;;;;;;6.65;2.63;;;22.60;99.90;;;;;;5089921;28;20201;-76
2023/08/03 09:41:38;;;;;;;4.53;1.98;;;22.40;99.90;;;;;;5091290;28;20651;-79
2023/08/03 09:44:07;;;;;;;6.70;2.30;;;22.30;99.90;;;;;;5093711;28;20206;-77
2023/08/03 09:46:35;;;;;;;5.85;2.25;;;23.50;99.90;;;;;;5093002;28;20229;-76
2023/08/03 09:49:02;;;;;;;8.13;2.55;;;24.50;99.90;;;;;;5093454;28;20629;-76
2023/08/03 09:51:31;;;;;;;8.32;2.22;;;24.80;99.90;;;;;;5108514;28;20258;-76
2023/08/03 09:54:08;;;;;;;8.93;2.33;;;24.90;99.90;;;;;;5113806;28;20724;-76
2023/08/03 09:56:38;;;;;;;11.77;3.42;;;25.10;99.90;;;;;;5113434;28;20705;-76
2023/08/03 09:59:09;;;;;;;2.75;1.27;;;25.20;99.90;;;;;;5113933;28;20644;-77
2023/08/03 10:01:39;;;;;;;4.57;1.30;;;25.00;99.90;;;;;;5113116;28;20274;-79
2023/08/03 10:04:13;;;;;;;2.38;1.73;;;24.80;99.90;;;;;;5113503;27;20297;-76
2023/08/03 10:06:45;;;;;;;3.88;1.77;;;24.60;99.90;;;;;;5113297;28;20238;-82
2023/08/03 10:09:17;;;;;;;3.42;1.42;;;24.50;99.90;;;;;;5113705;27;20312;-84
2023/08/03 10:11:48;;;;;;;3.72;1.77;;;24.50;99.90;;;;;;5113489;28;20212;-79
2023/08/03 10:14:17;;;;;;;5.15;1.20;;;24.80;99.90;;;;;;5113970;28;20289;-77
2023/08/03 10:16:45;;;;;;;4.00;1.92;;;27.90;99.90;;;;;;5112987;27;20269;-78
2023/08/03 10:19:12;;;;;;;4.97;1.20;;;32.40;99.90;;;;;;5113600;28;20262;-75
2023/08/03 10:21:41;;;;;;;4.57;1.63;;;30.60;99.90;;;;;;5112818;27;20297;-77
2023/08/03 10:24:13;;;;;;;3.55;1.65;;;29.60;99.90;;;;;;5113257;28;20209;-81
2023/08/03 10:26:40;;;;;;;5.07;2.22;;;29.30;99.90;;;;;;5113045;28;20301;-77
2023/08/03 10:29:07;;;;;;;2.83;1.58;;;28.90;99.90;;;;;;5113108;28;20233;-76
2023/08/03 10:31:51;;;;;;;2.65;1.58;;;28.20;99.90;;;;;;5112796;28;20236;-75
2023/08/03 10:34:26;;;;;;;3.20;1.63;;;27.90;99.90;;;;;;5099211;28;20260;-81
2023/08/03 10:36:56;;;;;;;2.38;1.52;;;27.40;99.90;;;;;;5112796;28;20759;-76
2023/08/03 10:39:59;;;;;;;7.03;1.95;;;27.30;99.90;;;;;;5113081;28;20204;-76
2023/08/03 10:42:32;;;;;;;2.95;2.30;;;27.00;99.90;;;;;;5070127;28;20217;-76
2023/08/03 10:45:30;;;;;;;5.90;2.00;;;26.20;99.90;;;;;;5070288;28;20233;-75
2023/08/03 10:48:17;;;;;;;2.35;1.45;;;25.70;99.90;;;;;;5073489;28;20211;-77
2023/08/03 10:51:01;;;;;;;4.18;1.75;;;25.70;99.90;;;;;;5112168;28;20278;-77
2023/08/03 10:53:29;;;;;;;3.97;1.63;;;25.50;99.90;;;;;;5111824;28;20232;-77
2023/08/03 10:56:08;;;;;;;4.38;2.20;;;25.60;99.90;;;;;;5112911;28;20292;-77
2023/08/03 10:58:47;;;;;;;4.32;2.05;;;25.70;99.90;;;;;;5112588;27;20200;-81
2023/08/03 11:01:15;;;;;;;4.70;1.95;;;25.80;99.90;;;;;;5097658;28;20213;-74
2023/08/03 11:03:42;;;;;;;4.53;1.90;;;26.00;99.90;;;;;;5090748;28;20289;-74
2023/08/03 11:06:09;;;;;;;5.18;2.10;;;25.90;99.90;;;;;;5106186;28;20213;-73
2023/08/03 11:08:39;;;;;;;3.97;2.13;;;25.70;99.90;;;;;;5112069;28;20232;-75
